sensor_id;sensor_type;location;lat;lon;timestamp;temperature;humidity
5276;DHT22;2661;50.786;12.728;2022-09-09T00:02:20;12.20;99.90
5276;DHT22;2661;50.786;12.728;2022-09-09T00:10:03;12.20;99.90
5276;DHT22;2661;50.786;12.728;2022-09-09T00:15:00;12.20;99.90
5276;DHT22;2661;50.786;12.728;2022-09-09T00:20:01;12.30;99.90
5276;DHT22;2661;50.786;12.728;2022-09-09T00:22:30;12.30;99.90
5276;DHT22;2661;50.786;12.728;2022-09-09T00:25:22;12.30;99.90
5276;DHT22;2661;50.786;12.728;2022-09-09T00:27:45;12.20;99.90
5276;DHT22;2661;50.786;12.728;2022-09-09T00:30:17;12.10;99.90
5276;DHT22;2661;50.786;12.728;2022-09-09T00:32:46;12.10;99.90
5276;DHT22;2661;50.786;12.728;2022-09-09T00:35:18;12.00;99.90
5276;DHT22;2661;50.786;12.728;2022-09-09T00:37:48;12.00;99.90
5276;DHT22;2661;50.786;12.728;2022-09-09T00:40:18;12.00;99.90
5276;DHT22;2661;50.786;12.728;2022-09-09T00:42:49;11.90;99.90
5276;DHT22;2661;50.786;12.728;2022-09-09T00:45:35;11.90;99.90
5276;DHT22;2661;50.786;12.728;2022-09-09T00:48:06;11.90;99.90
5276;DHT22;2661;50.786;12.728;2022-09-09T00:50:50;12.00;99.90
5276;DHT22;2661;50.786;12.728;2022-09-09T00:58:27;12.00;99.90
5276;DHT22;2661;50.786;12.728;2022-09-09T01:01:04;12.00;99.90
5276;DHT22;2661;50.786;12.728;2022-09-09T01:03:35;12.00;99.90
5276;DHT22;2661;50.786;12.728;2022-09-09T01:06:13;12.10;99.90
5276;DHT22;2661;50.786;12.728;2022-09-09T01:08:43;12.00;99.90
5276;DHT22;2661;50.786;12.728;2022-09-09T01:11:57;12.00;99.90
5276;DHT22;2661;50.786;12.728;2022-09-09T01:16:47;12.00;99.90
5276;DHT22;2661;50.786;12.728;2022-09-09T01:19:18;11.90;99.90
5276;DHT22;2661;50.786;12.728;2022-09-09T01:22:22;11.90;99.90
5276;DHT22;2661;50.786;12.728;2022-09-09T01:25:01;11.80;99.90
5276;DHT22;2661;50.786;12.728;2022-09-09T01:27:29;11.80;99.90
5276;DHT22;2661;50.786;12.728;2022-09-09T01:29:56;11.80;99.90
5276;DHT22;2661;50.786;12.728;2022-09-09T01:32:40;11.80;99.90
5276;DHT22;2661;50.786;12.728;2022-09-09T01:35:10;11.70;99.90
5276;DHT22;2661;50.786;12.728;2022-09-09T01:37:38;11.70;99.90
5276;DHT22;2661;50.786;12.728;2022-09-09T01:40:05;11.70;99.90
5276;DHT22;2661;50.786;12.728;2022-09-09T01:42:32;11.70;99.90
5276;DHT22;2661;50.786;12.728;2022-09-09T01:44:58;11.70;99.90
5276;DHT22;2661;50.786;12.728;2022-09-09T01:47:25;11.70;99.90
5276;DHT22;2661;50.786;12.728;2022-09-09T01:49:52;11.70;99.90
5276;DHT22;2661;50.786;12.728;2022-09-09T01:52:19;11.60;99.90
5276;DHT22;2661;50.786;12.728;2022-09-09T01:54:45;11.70;99.90
5276;DHT22;2661;50.786;12.728;2022-09-09T01:57:18;11.70;99.90
5276;DHT22;2661;50.786;12.728;2022-09-09T02:05:09;11.80;99.90
5276;DHT22;2661;50.786;12.728;2022-09-09T02:12:34;11.70;99.90
5276;DHT22;2661;50.786;12.728;2022-09-09T02:15:07;11.60;99.90
5276;DHT22;2661;50.786;12.728;2022-09-09T02:17:37;11.60;99.90
5276;DHT22;2661;50.786;12.728;2022-09-09T02:20:05;11.60;99.90
5276;DHT22;2661;50.786;12.728;2022-09-09T02:22:34;11.60;99.90
5276;DHT22;2661;50.786;12.728;2022-09-09T02:25:03;11.70;99.90
5276;DHT22;2661;50.786;12.728;2022-09-09T02:27:32;11.80;99.90
5276;DHT22;2661;50.786;12.728;2022-09-09T02:29:59;11.80;99.90
5276;DHT22;2661;50.786;12.728;2022-09-09T02:32:28;11.70;99.90
5276;DHT22;2661;50.786;12.728;2022-09-09T02:34:58;11.70;99.90
5276;DHT22;2661;50.786;12.728;2022-09-09T02:37:27;11.70;99.90
5276;DHT22;2661;50.786;12.728;2022-09-09T02:39:56;11.70;99.90
5276;DHT22;2661;50.786;12.728;2022-09-09T02:42:23;11.60;99.90
5276;DHT22;2661;50.786;12.728;2022-09-09T02:44:50;11.50;99.90
5276;DHT22;2661;50.786;12.728;2022-09-09T02:55:06;11.50;99.90
5276;DHT22;2661;50.786;12.728;2022-09-09T02:57:35;11.60;99.90
5276;DHT22;2661;50.786;12.728;2022-09-09T03:00:03;11.60;99.90
5276;DHT22;2661;50.786;12.728;2022-09-09T03:02:30;11.60;99.90
5276;DHT22;2661;50.786;12.728;2022-09-09T03:04:57;11.50;99.90
5276;DHT22;2661;50.786;12.728;2022-09-09T03:07:24;11.50;99.90
5276;DHT22;2661;50.786;12.728;2022-09-09T03:09:51;11.50;99.90
5276;DHT22;2661;50.786;12.728;2022-09-09T03:12:21;11.40;99.90
5276;DHT22;2661;50.786;12.728;2022-09-09T03:14:48;11.40;99.90
5276;DHT22;2661;50.786;12.728;2022-09-09T03:17:15;11.30;99.90
5276;DHT22;2661;50.786;12.728;2022-09-09T03:19:42;11.30;99.90
5276;DHT22;2661;50.786;12.728;2022-09-09T03:22:09;11.30;99.90
5276;DHT22;2661;50.786;12.728;2022-09-09T03:24:36;11.30;99.90
5276;DHT22;2661;50.786;12.728;2022-09-09T03:27:03;11.30;99.90
5276;DHT22;2661;50.786;12.728;2022-09-09T03:29:30;11.30;99.90
5276;DHT22;2661;50.786;12.728;2022-09-09T03:31:57;11.30;99.90
5276;DHT22;2661;50.786;12.728;2022-09-09T03:34:23;11.40;99.90
5276;DHT22;2661;50.786;12.728;2022-09-09T03:36:50;11.50;99.90
5276;DHT22;2661;50.786;12.728;2022-09-09T03:39:17;11.50;99.90
5276;DHT22;2661;50.786;12.728;2022-09-09T03:41:44;11.50;99.90
5276;DHT22;2661;50.786;12.728;2022-09-09T03:44:14;11.50;99.90
5276;DHT22;2661;50.786;12.728;2022-09-09T03:46:41;11.60;99.90
5276;DHT22;2661;50.786;12.728;2022-09-09T03:49:08;11.50;99.90
5276;DHT22;2661;50.786;12.728;2022-09-09T03:51:36;11.60;99.90
5276;DHT22;2661;50.786;12.728;2022-09-09T03:54:04;11.60;99.90
5276;DHT22;2661;50.786;12.728;2022-09-09T03:56:34;11.60;99.90
5276;DHT22;2661;50.786;12.728;2022-09-09T03:59:02;11.50;99.90
5276;DHT22;2661;50.786;12.728;2022-09-09T04:01:29;11.50;99.90
5276;DHT22;2661;50.786;12.728;2022-09-09T04:03:56;11.60;99.90
5276;DHT22;2661;50.786;12.728;2022-09-09T04:06:24;11.50;99.90
5276;DHT22;2661;50.786;12.728;2022-09-09T04:08:51;11.50;99.90
5276;DHT22;2661;50.786;12.728;2022-09-09T04:11:19;11.50;99.90
5276;DHT22;2661;50.786;12.728;2022-09-09T04:13:46;11.40;99.90
5276;DHT22;2661;50.786;12.728;2022-09-09T04:16:13;11.50;99.90
5276;DHT22;2661;50.786;12.728;2022-09-09T04:18:40;11.60;99.90
5276;DHT22;2661;50.786;12.728;2022-09-09T04:21:07;11.60;99.90
5276;DHT22;2661;50.786;12.728;2022-09-09T04:23:34;11.60;99.90
5276;DHT22;2661;50.786;12.728;2022-09-09T04:26:02;11.50;99.90
5276;DHT22;2661;50.786;12.728;2022-09-09T04:28:31;11.50;99.90
5276;DHT22;2661;50.786;12.728;2022-09-09T04:31:03;11.60;99.90
5276;DHT22;2661;50.786;12.728;2022-09-09T04:33:31;11.60;99.90
5276;DHT22;2661;50.786;12.728;2022-09-09T04:36:02;11.60;99.90
5276;DHT22;2661;50.786;12.728;2022-09-09T04:38:29;11.70;99.90
5276;DHT22;2661;50.786;12.728;2022-09-09T04:40:56;11.70;99.90
5276;DHT22;2661;50.786;12.728;2022-09-09T04:43:23;11.90;99.90
5276;DHT22;2661;50.786;12.728;2022-09-09T04:45:52;11.90;99.90
5276;DHT22;2661;50.786;12.728;2022-09-09T04:48:19;11.80;99.90
5276;DHT22;2661;50.786;12.728;2022-09-09T04:50:56;11.80;99.90
5276;DHT22;2661;50.786;12.728;2022-09-09T04:53:23;11.80;99.90
5276;DHT22;2661;50.786;12.728;2022-09-09T04:55:50;11.90;99.90
5276;DHT22;2661;50.786;12.728;2022-09-09T04:58:17;11.90;99.90
5276;DHT22;2661;50.786;12.728;2022-09-09T05:00:43;11.90;99.90
5276;DHT22;2661;50.786;12.728;2022-09-09T05:03:10;12.00;99.90
5276;DHT22;2661;50.786;12.728;2022-09-09T05:05:39;12.00;99.90
5276;DHT22;2661;50.786;12.728;2022-09-09T05:08:06;12.10;99.90
5276;DHT22;2661;50.786;12.728;2022-09-09T05:10:36;12.00;99.90
5276;DHT22;2661;50.786;12.728;2022-09-09T05:13:03;12.10;99.90
5276;DHT22;2661;50.786;12.728;2022-09-09T05:15:31;12.10;99.90
5276;DHT22;2661;50.786;12.728;2022-09-09T05:17:58;12.10;99.90
5276;DHT22;2661;50.786;12.728;2022-09-09T05:20:26;12.10;99.90
5276;DHT22;2661;50.786;12.728;2022-09-09T05:22:55;12.30;99.90
5276;DHT22;2661;50.786;12.728;2022-09-09T05:25:23;12.20;99.90
5276;DHT22;2661;50.786;12.728;2022-09-09T05:27:52;12.20;99.90
5276;DHT22;2661;50.786;12.728;2022-09-09T05:30:20;12.30;99.90
5276;DHT22;2661;50.786;12.728;2022-09-09T05:32:48;12.30;99.90
5276;DHT22;2661;50.786;12.728;2022-09-09T05:35:15;12.40;99.90
5276;DHT22;2661;50.786;12.728;2022-09-09T05:37:42;12.40;99.90
5276;DHT22;2661;50.786;12.728;2022-09-09T05:40:09;12.50;99.90
5276;DHT22;2661;50.786;12.728;2022-09-09T05:42:37;12.60;99.90
5276;DHT22;2661;50.786;12.728;2022-09-09T05:45:05;12.70;99.90
5276;DHT22;2661;50.786;12.728;2022-09-09T05:47:34;12.70;99.90
5276;DHT22;2661;50.786;12.728;2022-09-09T05:50:01;12.80;99.90
5276;DHT22;2661;50.786;12.728;2022-09-09T05:52:28;12.80;99.90
5276;DHT22;2661;50.786;12.728;2022-09-09T05:54:55;12.80;99.90
5276;DHT22;2661;50.786;12.728;2022-09-09T05:57:23;12.90;99.90
5276;DHT22;2661;50.786;12.728;2022-09-09T05:59:50;13.00;99.90
5276;DHT22;2661;50.786;12.728;2022-09-09T06:02:16;13.10;99.90
5276;DHT22;2661;50.786;12.728;2022-09-09T06:04:43;13.30;99.90
5276;DHT22;2661;50.786;12.728;2022-09-09T06:07:10;13.50;99.90
5276;DHT22;2661;50.786;12.728;2022-09-09T06:09:37;13.80;99.90
5276;DHT22;2661;50.786;12.728;2022-09-09T06:12:03;13.90;99.90
5276;DHT22;2661;50.786;12.728;2022-09-09T06:14:30;14.00;99.90
5276;DHT22;2661;50.786;12.728;2022-09-09T06:16:57;14.10;99.90
5276;DHT22;2661;50.786;12.728;2022-09-09T06:19:24;14.20;99.90
5276;DHT22;2661;50.786;12.728;2022-09-09T06:21:52;14.40;99.90
5276;DHT22;2661;50.786;12.728;2022-09-09T06:24:19;14.40;99.90
5276;DHT22;2661;50.786;12.728;2022-09-09T06:26:46;14.50;99.90
5276;DHT22;2661;50.786;12.728;2022-09-09T06:29:13;14.60;99.90
5276;DHT22;2661;50.786;12.728;2022-09-09T06:31:39;14.70;99.90
5276;DHT22;2661;50.786;12.728;2022-09-09T06:34:08;14.70;99.90
5276;DHT22;2661;50.786;12.728;2022-09-09T06:36:36;14.80;99.90
5276;DHT22;2661;50.786;12.728;2022-09-09T06:39:03;14.90;99.90
5276;DHT22;2661;50.786;12.728;2022-09-09T06:41:31;14.90;99.90
5276;DHT22;2661;50.786;12.728;2022-09-09T06:43:59;14.90;99.90
5276;DHT22;2661;50.786;12.728;2022-09-09T06:46:27;15.00;99.90
5276;DHT22;2661;50.786;12.728;2022-09-09T06:48:54;15.00;99.90
5276;DHT22;2661;50.786;12.728;2022-09-09T06:51:27;15.10;99.90
5276;DHT22;2661;50.786;12.728;2022-09-09T06:53:54;15.20;99.90
5276;DHT22;2661;50.786;12.728;2022-09-09T06:56:34;15.30;99.90
5276;DHT22;2661;50.786;12.728;2022-09-09T06:59:03;15.40;99.90
5276;DHT22;2661;50.786;12.728;2022-09-09T07:01:31;15.50;99.90
5276;DHT22;2661;50.786;12.728;2022-09-09T07:03:59;15.50;99.90
5276;DHT22;2661;50.786;12.728;2022-09-09T07:06:26;15.60;99.90
5276;DHT22;2661;50.786;12.728;2022-09-09T07:08:54;15.70;99.90
5276;DHT22;2661;50.786;12.728;2022-09-09T07:11:23;15.80;90.50
5276;DHT22;2661;50.786;12.728;2022-09-09T07:13:51;16.00;91.70
5276;DHT22;2661;50.786;12.728;2022-09-09T07:16:19;16.00;76.90
5276;DHT22;2661;50.786;12.728;2022-09-09T07:18:47;16.10;92.00
5276;DHT22;2661;50.786;12.728;2022-09-09T07:21:13;16.20;91.00
5276;DHT22;2661;50.786;12.728;2022-09-09T07:23:40;16.30;71.90
5276;DHT22;2661;50.786;12.728;2022-09-09T07:26:11;16.40;79.30
5276;DHT22;2661;50.786;12.728;2022-09-09T07:28:38;16.50;99.90
5276;DHT22;2661;50.786;12.728;2022-09-09T07:31:05;16.60;99.90
5276;DHT22;2661;50.786;12.728;2022-09-09T07:33:33;16.60;99.90
5276;DHT22;2661;50.786;12.728;2022-09-09T07:36:04;16.70;99.90
5276;DHT22;2661;50.786;12.728;2022-09-09T07:38:33;16.70;99.90
5276;DHT22;2661;50.786;12.728;2022-09-09T07:41:04;16.80;99.90
5276;DHT22;2661;50.786;12.728;2022-09-09T07:43:32;16.80;99.90
5276;DHT22;2661;50.786;12.728;2022-09-09T07:46:00;16.90;99.90
5276;DHT22;2661;50.786;12.728;2022-09-09T07:48:29;17.00;99.90
5276;DHT22;2661;50.786;12.728;2022-09-09T07:51:06;17.10;99.90
5276;DHT22;2661;50.786;12.728;2022-09-09T07:53:33;17.20;90.20
5276;DHT22;2661;50.786;12.728;2022-09-09T07:56:05;17.30;99.90
5276;DHT22;2661;50.786;12.728;2022-09-09T07:58:32;17.40;99.90
5276;DHT22;2661;50.786;12.728;2022-09-09T08:01:08;17.40;99.90
5276;DHT22;2661;50.786;12.728;2022-09-09T08:03:35;17.40;99.90
5276;DHT22;2661;50.786;12.728;2022-09-09T08:06:02;17.40;95.50
5276;DHT22;2661;50.786;12.728;2022-09-09T08:08:29;17.40;99.90
5276;DHT22;2661;50.786;12.728;2022-09-09T08:11:06;17.50;99.90
5276;DHT22;2661;50.786;12.728;2022-09-09T08:13:34;17.60;99.90
5276;DHT22;2661;50.786;12.728;2022-09-09T08:16:12;17.70;99.90
5276;DHT22;2661;50.786;12.728;2022-09-09T08:18:39;17.80;99.90
5276;DHT22;2661;50.786;12.728;2022-09-09T08:21:10;17.90;99.90
5276;DHT22;2661;50.786;12.728;2022-09-09T08:23:41;18.00;99.90
5276;DHT22;2661;50.786;12.728;2022-09-09T08:26:10;18.00;99.90
5276;DHT22;2661;50.786;12.728;2022-09-09T08:28:37;18.10;99.90
5276;DHT22;2661;50.786;12.728;2022-09-09T08:31:05;18.20;99.90
5276;DHT22;2661;50.786;12.728;2022-09-09T08:33:32;18.30;99.90
5276;DHT22;2661;50.786;12.728;2022-09-09T08:35:59;18.30;99.90
5276;DHT22;2661;50.786;12.728;2022-09-09T08:38:26;18.40;99.90
5276;DHT22;2661;50.786;12.728;2022-09-09T08:40:56;18.50;99.90
5276;DHT22;2661;50.786;12.728;2022-09-09T08:43:27;18.50;99.90
5276;DHT22;2661;50.786;12.728;2022-09-09T08:45:57;18.70;99.90
5276;DHT22;2661;50.786;12.728;2022-09-09T08:48:32;18.80;99.90
5276;DHT22;2661;50.786;12.728;2022-09-09T08:51:03;18.80;99.90
5276;DHT22;2661;50.786;12.728;2022-09-09T08:53:44;18.90;99.90
5276;DHT22;2661;50.786;12.728;2022-09-09T08:56:13;18.90;99.90
5276;DHT22;2661;50.786;12.728;2022-09-09T08:58:45;18.90;99.90
5276;DHT22;2661;50.786;12.728;2022-09-09T09:09:01;18.80;99.90
5276;DHT22;2661;50.786;12.728;2022-09-09T09:11:35;18.70;99.90
5276;DHT22;2661;50.786;12.728;2022-09-09T09:14:03;18.70;99.90
5276;DHT22;2661;50.786;12.728;2022-09-09T09:16:33;18.60;99.90
5276;DHT22;2661;50.786;12.728;2022-09-09T09:19:00;18.60;99.90
5276;DHT22;2661;50.786;12.728;2022-09-09T09:21:41;18.60;99.90
5276;DHT22;2661;50.786;12.728;2022-09-09T09:27:00;18.50;99.90
5276;DHT22;2661;50.786;12.728;2022-09-09T09:29:33;18.50;99.90
5276;DHT22;2661;50.786;12.728;2022-09-09T09:32:21;18.60;99.90
5276;DHT22;2661;50.786;12.728;2022-09-09T09:34:51;18.60;99.90
5276;DHT22;2661;50.786;12.728;2022-09-09T09:37:22;18.50;99.90
5276;DHT22;2661;50.786;12.728;2022-09-09T09:39:50;18.60;99.90
5276;DHT22;2661;50.786;12.728;2022-09-09T09:42:32;18.60;99.90
5276;DHT22;2661;50.786;12.728;2022-09-09T09:45:13;18.60;99.90
5276;DHT22;2661;50.786;12.728;2022-09-09T09:47:41;18.60;99.90
5276;DHT22;2661;50.786;12.728;2022-09-09T09:50:18;18.70;99.90
5276;DHT22;2661;50.786;12.728;2022-09-09T09:52:53;18.60;99.90
5276;DHT22;2661;50.786;12.728;2022-09-09T09:55:20;18.70;99.90
5276;DHT22;2661;50.786;12.728;2022-09-09T09:57:47;18.70;99.90
5276;DHT22;2661;50.786;12.728;2022-09-09T10:00:19;18.70;99.90
5276;DHT22;2661;50.786;12.728;2022-09-09T10:02:47;18.70;99.90
5276;DHT22;2661;50.786;12.728;2022-09-09T10:10:34;18.80;99.90
5276;DHT22;2661;50.786;12.728;2022-09-09T10:13:11;18.80;88.00
5276;DHT22;2661;50.786;12.728;2022-09-09T10:15:44;18.90;99.90
5276;DHT22;2661;50.786;12.728;2022-09-09T10:18:22;18.90;99.90
5276;DHT22;2661;50.786;12.728;2022-09-09T10:21:17;19.00;99.90
5276;DHT22;2661;50.786;12.728;2022-09-09T10:23:46;19.00;99.90
5276;DHT22;2661;50.786;12.728;2022-09-09T10:31:49;19.20;99.90
5276;DHT22;2661;50.786;12.728;2022-09-09T10:34:42;19.20;99.90
5276;DHT22;2661;50.786;12.728;2022-09-09T10:37:19;19.30;99.90
5276;DHT22;2661;50.786;12.728;2022-09-09T10:39:50;19.50;99.90
5276;DHT22;2661;50.786;12.728;2022-09-09T10:42:20;19.60;99.90
5276;DHT22;2661;50.786;12.728;2022-09-09T10:44:57;19.70;99.90
5276;DHT22;2661;50.786;12.728;2022-09-09T10:47:48;19.80;49.60
5276;DHT22;2661;50.786;12.728;2022-09-09T10:53:35;19.80;99.90
5276;DHT22;2661;50.786;12.728;2022-09-09T10:56:06;19.90;99.90
5276;DHT22;2661;50.786;12.728;2022-09-09T10:58:38;19.80;99.90
5276;DHT22;2661;50.786;12.728;2022-09-09T11:01:10;19.90;99.90
5276;DHT22;2661;50.786;12.728;2022-09-09T11:03:42;20.10;99.90
5276;DHT22;2661;50.786;12.728;2022-09-09T11:06:12;20.50;99.90
5276;DHT22;2661;50.786;12.728;2022-09-09T11:08:40;20.70;99.90
5276;DHT22;2661;50.786;12.728;2022-09-09T11:11:19;20.80;99.90
5276;DHT22;2661;50.786;12.728;2022-09-09T11:19:03;20.70;99.90
5276;DHT22;2661;50.786;12.728;2022-09-09T11:21:32;20.60;99.90
5276;DHT22;2661;50.786;12.728;2022-09-09T11:24:02;20.40;99.90
5276;DHT22;2661;50.786;12.728;2022-09-09T11:26:38;20.20;99.90
5276;DHT22;2661;50.786;12.728;2022-09-09T11:29:20;20.10;99.90
5276;DHT22;2661;50.786;12.728;2022-09-09T11:32:12;20.00;99.90
5276;DHT22;2661;50.786;12.728;2022-09-09T11:34:53;19.90;99.90
5276;DHT22;2661;50.786;12.728;2022-09-09T11:40:18;19.70;99.90
5276;DHT22;2661;50.786;12.728;2022-09-09T11:42:46;19.80;99.90
5276;DHT22;2661;50.786;12.728;2022-09-09T11:45:20;19.80;99.90
5276;DHT22;2661;50.786;12.728;2022-09-09T11:47:53;19.90;99.90
5276;DHT22;2661;50.786;12.728;2022-09-09T11:52:48;20.20;99.90
5276;DHT22;2661;50.786;12.728;2022-09-09T11:55:29;20.30;99.90
5276;DHT22;2661;50.786;12.728;2022-09-09T11:57:57;20.50;99.90
5276;DHT22;2661;50.786;12.728;2022-09-09T12:00:37;20.80;99.90
5276;DHT22;2661;50.786;12.728;2022-09-09T12:03:04;20.90;99.90
5276;DHT22;2661;50.786;12.728;2022-09-09T12:05:39;21.20;99.90
5276;DHT22;2661;50.786;12.728;2022-09-09T12:08:08;21.40;99.90
5276;DHT22;2661;50.786;12.728;2022-09-09T12:10:39;21.60;99.90
5276;DHT22;2661;50.786;12.728;2022-09-09T12:13:19;21.70;99.90
5276;DHT22;2661;50.786;12.728;2022-09-09T12:15:51;21.80;99.90
5276;DHT22;2661;50.786;12.728;2022-09-09T12:18:23;21.80;99.90
5276;DHT22;2661;50.786;12.728;2022-09-09T12:23:45;21.70;99.90
5276;DHT22;2661;50.786;12.728;2022-09-09T12:26:19;21.50;99.90
5276;DHT22;2661;50.786;12.728;2022-09-09T12:31:20;21.30;99.90
5276;DHT22;2661;50.786;12.728;2022-09-09T12:33:48;21.20;99.90
5276;DHT22;2661;50.786;12.728;2022-09-09T12:36:16;21.10;99.90
5276;DHT22;2661;50.786;12.728;2022-09-09T12:38:45;21.10;99.90
5276;DHT22;2661;50.786;12.728;2022-09-09T12:41:22;21.10;99.90
5276;DHT22;2661;50.786;12.728;2022-09-09T12:43:49;21.00;99.90
5276;DHT22;2661;50.786;12.728;2022-09-09T12:46:27;21.00;99.90
5276;DHT22;2661;50.786;12.728;2022-09-09T12:48:58;21.10;99.90
5276;DHT22;2661;50.786;12.728;2022-09-09T12:51:29;21.00;99.90
5276;DHT22;2661;50.786;12.728;2022-09-09T12:53:56;21.10;99.90
5276;DHT22;2661;50.786;12.728;2022-09-09T12:56:27;21.00;99.90
5276;DHT22;2661;50.786;12.728;2022-09-09T12:58:56;20.90;99.90
5276;DHT22;2661;50.786;12.728;2022-09-09T13:01:24;20.80;99.90
5276;DHT22;2661;50.786;12.728;2022-09-09T13:03:52;20.70;99.90
5276;DHT22;2661;50.786;12.728;2022-09-09T13:06:29;20.70;99.90
5276;DHT22;2661;50.786;12.728;2022-09-09T13:09:00;20.70;99.90
5276;DHT22;2661;50.786;12.728;2022-09-09T13:11:41;20.80;99.90
5276;DHT22;2661;50.786;12.728;2022-09-09T13:14:12;20.90;99.90
5276;DHT22;2661;50.786;12.728;2022-09-09T13:16:56;20.90;99.90
5276;DHT22;2661;50.786;12.728;2022-09-09T13:19:23;21.10;99.90
5276;DHT22;2661;50.786;12.728;2022-09-09T13:21:55;21.10;99.90
5276;DHT22;2661;50.786;12.728;2022-09-09T13:24:26;21.20;99.90
5276;DHT22;2661;50.786;12.728;2022-09-09T13:26:58;21.10;99.90
5276;DHT22;2661;50.786;12.728;2022-09-09T13:29:28;21.10;99.90
5276;DHT22;2661;50.786;12.728;2022-09-09T13:32:05;21.10;99.90
5276;DHT22;2661;50.786;12.728;2022-09-09T13:34:33;21.10;99.90
5276;DHT22;2661;50.786;12.728;2022-09-09T13:37:02;21.10;99.90
5276;DHT22;2661;50.786;12.728;2022-09-09T13:39:30;21.20;99.90
5276;DHT22;2661;50.786;12.728;2022-09-09T13:41:57;21.30;99.90
5276;DHT22;2661;50.786;12.728;2022-09-09T13:44:25;21.40;99.90
5276;DHT22;2661;50.786;12.728;2022-09-09T13:47:00;21.40;99.90
5276;DHT22;2661;50.786;12.728;2022-09-09T13:49:33;21.60;99.90
5276;DHT22;2661;50.786;12.728;2022-09-09T13:52:09;21.60;99.90
5276;DHT22;2661;50.786;12.728;2022-09-09T13:54:36;21.60;99.90
5276;DHT22;2661;50.786;12.728;2022-09-09T13:57:03;21.50;99.90
5276;DHT22;2661;50.786;12.728;2022-09-09T13:59:31;21.50;99.90
5276;DHT22;2661;50.786;12.728;2022-09-09T14:02:18;21.50;99.90
5276;DHT22;2661;50.786;12.728;2022-09-09T14:04:45;21.40;99.90
5276;DHT22;2661;50.786;12.728;2022-09-09T14:07:12;21.30;99.90
5276;DHT22;2661;50.786;12.728;2022-09-09T14:09:39;21.30;99.90
5276;DHT22;2661;50.786;12.728;2022-09-09T14:12:13;21.20;99.90
5276;DHT22;2661;50.786;12.728;2022-09-09T14:14:41;20.90;99.90
5276;DHT22;2661;50.786;12.728;2022-09-09T14:17:09;20.80;99.90
5276;DHT22;2661;50.786;12.728;2022-09-09T14:19:36;20.70;99.90
5276;DHT22;2661;50.786;12.728;2022-09-09T14:22:03;20.70;99.90
5276;DHT22;2661;50.786;12.728;2022-09-09T14:24:30;20.70;99.90
5276;DHT22;2661;50.786;12.728;2022-09-09T14:26:57;20.50;99.90
5276;DHT22;2661;50.786;12.728;2022-09-09T14:29:23;20.50;99.90
5276;DHT22;2661;50.786;12.728;2022-09-09T14:31:53;20.30;99.90
5276;DHT22;2661;50.786;12.728;2022-09-09T14:34:19;20.20;99.90
5276;DHT22;2661;50.786;12.728;2022-09-09T14:36:46;20.00;99.90
5276;DHT22;2661;50.786;12.728;2022-09-09T14:39:13;20.00;99.90
5276;DHT22;2661;50.786;12.728;2022-09-09T14:41:40;19.90;99.90
5276;DHT22;2661;50.786;12.728;2022-09-09T14:44:07;19.80;99.90
5276;DHT22;2661;50.786;12.728;2022-09-09T14:46:34;19.80;99.90
5276;DHT22;2661;50.786;12.728;2022-09-09T14:49:01;19.70;99.90
5276;DHT22;2661;50.786;12.728;2022-09-09T14:51:27;19.80;99.90
5276;DHT22;2661;50.786;12.728;2022-09-09T14:53:55;19.70;99.90
5276;DHT22;2661;50.786;12.728;2022-09-09T14:56:24;19.50;99.90
5276;DHT22;2661;50.786;12.728;2022-09-09T14:58:53;19.40;99.90
5276;DHT22;2661;50.786;12.728;2022-09-09T15:01:20;19.30;99.90
5276;DHT22;2661;50.786;12.728;2022-09-09T15:03:50;19.20;99.90
5276;DHT22;2661;50.786;12.728;2022-09-09T15:06:18;19.20;99.90
5276;DHT22;2661;50.786;12.728;2022-09-09T15:08:45;19.00;99.90
5276;DHT22;2661;50.786;12.728;2022-09-09T15:11:12;18.90;99.90
5276;DHT22;2661;50.786;12.728;2022-09-09T15:13:39;18.90;99.90
5276;DHT22;2661;50.786;12.728;2022-09-09T15:16:07;18.80;99.90
5276;DHT22;2661;50.786;12.728;2022-09-09T15:18:34;18.70;99.90
5276;DHT22;2661;50.786;12.728;2022-09-09T15:21:03;18.60;99.90
5276;DHT22;2661;50.786;12.728;2022-09-09T15:23:34;18.60;99.90
5276;DHT22;2661;50.786;12.728;2022-09-09T15:26:01;18.60;99.90
5276;DHT22;2661;50.786;12.728;2022-09-09T15:28:28;18.50;99.90
5276;DHT22;2661;50.786;12.728;2022-09-09T15:30:55;18.50;99.90
5276;DHT22;2661;50.786;12.728;2022-09-09T15:33:23;18.60;99.90
5276;DHT22;2661;50.786;12.728;2022-09-09T15:35:49;18.70;99.90
5276;DHT22;2661;50.786;12.728;2022-09-09T15:38:17;19.00;99.90
5276;DHT22;2661;50.786;12.728;2022-09-09T15:40:44;19.30;99.90
5276;DHT22;2661;50.786;12.728;2022-09-09T15:43:10;19.60;99.90
5276;DHT22;2661;50.786;12.728;2022-09-09T15:45:37;19.70;99.90
5276;DHT22;2661;50.786;12.728;2022-09-09T15:48:04;19.70;99.90
5276;DHT22;2661;50.786;12.728;2022-09-09T15:50:31;19.60;99.90
5276;DHT22;2661;50.786;12.728;2022-09-09T15:52:59;19.60;97.30
5276;DHT22;2661;50.786;12.728;2022-09-09T15:55:26;19.50;99.90
5276;DHT22;2661;50.786;12.728;2022-09-09T15:57:52;19.40;99.90
5276;DHT22;2661;50.786;12.728;2022-09-09T16:00:19;19.30;99.90
5276;DHT22;2661;50.786;12.728;2022-09-09T16:02:46;19.20;99.90
5276;DHT22;2661;50.786;12.728;2022-09-09T16:05:13;19.10;99.90
5276;DHT22;2661;50.786;12.728;2022-09-09T16:07:40;19.10;99.90
5276;DHT22;2661;50.786;12.728;2022-09-09T16:10:09;19.00;99.90
5276;DHT22;2661;50.786;12.728;2022-09-09T16:12:35;19.10;99.90
5276;DHT22;2661;50.786;12.728;2022-09-09T16:15:03;19.00;99.90
5276;DHT22;2661;50.786;12.728;2022-09-09T16:17:30;18.90;99.90
5276;DHT22;2661;50.786;12.728;2022-09-09T16:19:56;18.80;99.90
5276;DHT22;2661;50.786;12.728;2022-09-09T16:22:24;18.70;99.90
5276;DHT22;2661;50.786;12.728;2022-09-09T16:24:50;18.70;99.90
5276;DHT22;2661;50.786;12.728;2022-09-09T16:27:17;18.70;99.90
5276;DHT22;2661;50.786;12.728;2022-09-09T16:29:44;18.50;99.90
5276;DHT22;2661;50.786;12.728;2022-09-09T16:32:11;18.40;99.90
5276;DHT22;2661;50.786;12.728;2022-09-09T16:34:38;18.40;99.90
5276;DHT22;2661;50.786;12.728;2022-09-09T16:37:05;18.40;99.90
5276;DHT22;2661;50.786;12.728;2022-09-09T16:39:31;18.30;99.90
5276;DHT22;2661;50.786;12.728;2022-09-09T16:41:58;18.20;99.90
5276;DHT22;2661;50.786;12.728;2022-09-09T16:44:26;18.20;99.90
5276;DHT22;2661;50.786;12.728;2022-09-09T16:46:52;18.10;99.90
5276;DHT22;2661;50.786;12.728;2022-09-09T16:49:25;18.00;99.90
5276;DHT22;2661;50.786;12.728;2022-09-09T16:51:53;17.90;99.90
5276;DHT22;2661;50.786;12.728;2022-09-09T16:54:20;17.80;99.90
5276;DHT22;2661;50.786;12.728;2022-09-09T16:56:48;17.80;99.90
5276;DHT22;2661;50.786;12.728;2022-09-09T16:59:16;17.70;99.90
5276;DHT22;2661;50.786;12.728;2022-09-09T17:01:43;17.60;99.90
5276;DHT22;2661;50.786;12.728;2022-09-09T17:04:11;17.60;99.90
5276;DHT22;2661;50.786;12.728;2022-09-09T17:06:40;17.40;99.90
5276;DHT22;2661;50.786;12.728;2022-09-09T17:09:08;17.40;99.90
5276;DHT22;2661;50.786;12.728;2022-09-09T17:11:36;17.40;99.90
5276;DHT22;2661;50.786;12.728;2022-09-09T17:14:03;17.30;99.90
5276;DHT22;2661;50.786;12.728;2022-09-09T17:16:30;17.20;99.90
5276;DHT22;2661;50.786;12.728;2022-09-09T17:18:58;17.20;99.90